Time;durP1;ratioP1;P1;durP2;ratioP2;P2;SDS_P1;SDS_P2;PMS_P1;PMS_P2;Temp;Humidity;BMP_temperature;BMP_pressure;BME280_temperature;BME280_humidity;BME280_pressure;Samples;Min_cycle;Max_cycle;Signal;HPM_P1;HPM_P2
2023/05/23 00:01:42;;;;;;;12.63;8.00;;;13.30;99.90;;;12.73;100.00;101735.56;4185074;28;20064;-68
2023/05/23 00:03:43;;;;;;;10.98;8.20;;;13.30;99.90;;;12.73;100.00;101736.38;4185475;28;20100;-68
2023/05/23 00:05:46;;;;;;;13.80;8.73;;;13.30;99.90;;;12.70;100.00;101725.25;4189507;28;20390;-68
2023/05/23 00:07:47;;;;;;;11.60;8.23;;;13.30;99.90;;;12.69;100.00;101723.59;4195920;28;20043;-68
2023/05/23 00:09:48;;;;;;;11.48;8.23;;;13.30;99.90;;;12.65;100.00;101727.50;4187526;28;20021;-68
2023/05/23 00:11:49;;;;;;;15.00;8.43;;;13.30;99.90;;;12.62;100.00;101725.16;4185428;28;20025;-68
2023/05/23 00:13:50;;;;;;;12.95;7.57;;;13.20;99.90;;;12.57;100.00;101712.34;4185290;28;20028;-68
2023/05/23 00:15:51;;;;;;;11.25;7.63;;;13.20;99.90;;;12.56;100.00;101723.09;4194408;28;20035;-68
2023/05/23 00:17:51;;;;;;;12.68;8.00;;;13.20;99.90;;;12.54;100.00;101707.38;4184250;28;20021;-69
2023/05/23 00:19:54;;;;;;;12.40;8.43;;;13.10;99.90;;;12.54;100.00;101709.16;4186951;28;20021;-68
2023/05/23 00:21:55;;;;;;;12.27;8.02;;;13.10;99.90;;;12.51;100.00;101717.41;4184978;28;20029;-68
2023/05/23 00:23:57;;;;;;;10.05;7.82;;;13.10;99.90;;;12.47;100.00;101706.25;4185085;28;20396;-68
2023/05/23 00:25:59;;;;;;;11.40;8.73;;;13.10;99.90;;;12.49;100.00;101719.34;4197290;28;20488;-68
2023/05/23 00:28:00;;;;;;;14.00;8.40;;;13.10;99.90;;;12.47;100.00;101726.59;4186449;28;20021;-68
2023/05/23 00:30:02;;;;;;;12.27;7.25;;;13.10;99.90;;;12.44;100.00;101722.44;4193843;28;20025;-68
2023/05/23 00:32:03;;;;;;;13.43;8.05;;;13.00;99.90;;;12.42;100.00;101726.22;4185122;28;20057;-68
2023/05/23 00:34:03;;;;;;;14.13;8.07;;;13.00;99.90;;;12.40;100.00;101718.41;4196667;28;20562;-68
2023/05/23 00:36:04;;;;;;;10.88;8.57;;;13.00;99.90;;;12.40;100.00;101713.09;4184903;28;20021;-68
2023/05/23 00:38:06;;;;;;;13.02;7.68;;;13.00;99.90;;;12.37;100.00;101716.03;4187018;28;20103;-68
2023/05/23 00:40:08;;;;;;;10.85;7.40;;;12.90;99.90;;;12.34;100.00;101712.84;4191913;28;20029;-68
2023/05/23 00:42:08;;;;;;;12.25;7.25;;;12.90;99.90;;;12.32;100.00;101714.81;4196615;28;20099;-68
2023/05/23 00:44:09;;;;;;;13.25;8.75;;;12.90;99.90;;;12.30;100.00;101714.13;4184316;28;20036;-68
2023/05/23 00:46:10;;;;;;;12.27;7.20;;;12.80;99.90;;;12.27;100.00;101719.69;4190799;28;20059;-68
2023/05/23 00:48:12;;;;;;;11.98;7.75;;;12.80;99.90;;;12.22;100.00;101714.81;4200023;28;20055;-68
2023/05/23 00:50:14;;;;;;;9.68;7.30;;;12.80;99.90;;;12.18;100.00;101721.41;4188801;28;20033;-68
2023/05/23 00:52:16;;;;;;;18.15;8.05;;;12.80;99.90;;;12.16;100.00;101723.31;4199149;28;20059;-68
2023/05/23 00:54:23;;;;;;;14.98;8.82;;;12.70;99.90;;;12.13;100.00;101721.81;4194446;28;20025;-68
2023/05/23 00:56:25;;;;;;;14.02;8.23;;;12.70;99.90;;;12.10;100.00;101714.16;4183710;28;20512;-69
2023/05/23 00:58:26;;;;;;;11.27;7.97;;;12.70;99.90;;;12.12;100.00;101714.88;4197063;28;20017;-68
2023/05/23 01:00:27;;;;;;;11.77;7.85;;;12.70;99.90;;;12.11;100.00;101718.47;4190029;28;20044;-68
2023/05/23 01:02:32;;;;;;;14.10;7.63;;;12.70;99.90;;;12.08;100.00;101713.47;4194693;28;20122;-68
2023/05/23 01:04:34;;;;;;;16.55;8.93;;;12.60;99.90;;;12.03;100.00;101714.88;4194778;28;20033;-68
2023/05/23 01:06:35;;;;;;;10.40;7.57;;;12.60;99.90;;;11.99;100.00;101714.31;4189995;28;20029;-68
2023/05/23 01:08:36;;;;;;;10.90;7.97;;;12.60;99.90;;;11.96;100.00;101705.84;4189707;28;20074;-68
2023/05/23 01:10:38;;;;;;;9.82;6.78;;;12.60;99.90;;;11.97;100.00;101711.00;4193557;28;20108;-68
2023/05/23 01:13:29;;;;;;;11.60;8.25;;;12.60;99.90;;;11.95;100.00;101718.22;4202372;28;20024;-68
2023/05/23 01:16:10;;;;;;;12.73;8.68;;;12.50;99.90;;;11.89;100.00;101713.47;4186064;28;20041;-68
2023/05/23 01:18:53;;;;;;;12.40;8.50;;;12.50;99.90;;;11.83;100.00;101703.47;4197005;28;20037;-68
2023/05/23 01:21:00;;;;;;;13.23;7.90;;;12.50;99.90;;;11.82;100.00;101704.47;4191069;28;20033;-68
2023/05/23 01:23:23;;;;;;;10.75;7.63;;;12.40;99.90;;;11.82;100.00;101693.91;4186384;28;20039;-68
2023/05/23 01:26:18;;;;;;;11.85;7.93;;;12.40;99.90;;;11.80;100.00;101685.25;4197030;28;20032;-68
2023/05/23 01:28:26;;;;;;;24.80;9.45;;;12.40;99.90;;;11.79;100.00;101683.59;4204154;28;20012;-68
2023/05/23 01:30:34;;;;;;;12.27;9.48;;;12.40;99.90;;;11.82;100.00;101687.75;4192236;28;20136;-68
2023/05/23 01:32:36;;;;;;;15.15;9.63;;;12.40;99.90;;;11.82;100.00;101699.19;4186300;28;20048;-68
2023/05/23 01:34:38;;;;;;;13.48;9.20;;;12.40;99.90;;;11.83;100.00;101692.06;4186239;28;20025;-68
2023/05/23 01:36:42;;;;;;;13.00;8.93;;;12.40;99.90;;;11.83;100.00;101695.53;4194362;28;20021;-68
2023/05/23 01:38:42;;;;;;;15.70;9.02;;;12.40;99.90;;;11.81;100.00;101700.16;4198017;28;20016;-68
2023/05/23 01:40:43;;;;;;;13.57;8.95;;;12.40;99.90;;;11.79;100.00;101698.63;4189042;28;20036;-68
2023/05/23 01:42:44;;;;;;;14.27;8.45;;;12.40;99.90;;;11.80;100.00;101698.47;4196126;28;20024;-68
2023/05/23 01:44:47;;;;;;;11.82;8.95;;;12.40;99.90;;;11.80;100.00;101695.00;4203958;28;20108;-68
2023/05/23 01:46:48;;;;;;;13.30;9.10;;;12.40;99.90;;;11.82;100.00;101700.97;4190689;28;20114;-68
2023/05/23 01:48:49;;;;;;;10.98;8.38;;;12.40;99.90;;;11.78;100.00;101695.13;4191759;28;20508;-68
2023/05/23 01:50:51;;;;;;;12.30;8.20;;;12.40;99.90;;;11.75;100.00;101695.41;4191351;28;20126;-68
2023/05/23 01:52:53;;;;;;;12.10;8.95;;;12.40;99.90;;;11.79;100.00;101706.56;4187207;28;20103;-68
2023/05/23 01:54:55;;;;;;;12.05;7.85;;;12.40;99.90;;;11.78;100.00;101703.06;4200613;28;20025;-68
2023/05/23 01:56:57;;;;;;;11.07;8.30;;;12.40;99.90;;;11.77;100.00;101703.22;4186728;28;20148;-68
2023/05/23 01:58:58;;;;;;;15.98;9.27;;;12.40;99.90;;;11.75;100.00;101703.34;4188286;28;20036;-68
2023/05/23 02:01:00;;;;;;;14.27;9.18;;;12.40;99.90;;;11.78;100.00;101703.06;4196303;28;20032;-68
2023/05/23 02:03:01;;;;;;;16.20;8.63;;;12.30;99.90;;;11.75;100.00;101708.63;4203609;28;20032;-68
2023/05/23 02:05:03;;;;;;;12.38;9.20;;;12.30;99.90;;;11.75;100.00;101705.16;4187355;28;20044;-68
2023/05/23 02:07:04;;;;;;;15.95;10.30;;;12.30;99.90;;;11.76;100.00;101704.19;4191554;28;20034;-68
2023/05/23 02:09:05;;;;;;;11.75;8.00;;;12.30;99.90;;;11.72;100.00;101708.91;4194126;28;20028;-68
2023/05/23 02:11:07;;;;;;;13.82;8.25;;;12.30;99.90;;;11.66;100.00;101698.88;4186201;28;20029;-68
2023/05/23 02:13:08;;;;;;;17.80;9.93;;;12.30;99.90;;;11.68;100.00;101704.84;4200357;28;20380;-68
2023/05/23 02:15:09;;;;;;;15.55;9.18;;;12.30;99.90;;;11.66;100.00;101707.63;4185743;28;20031;-68
2023/05/23 02:17:10;;;;;;;17.83;8.73;;;12.30;99.90;;;11.65;100.00;101713.03;4194776;28;20028;-68
2023/05/23 02:19:11;;;;;;;15.48;9.32;;;12.20;99.90;;;11.64;100.00;101706.09;4203105;28;20021;-68
2023/05/23 02:21:12;;;;;;;13.30;9.02;;;12.20;99.90;;;11.64;100.00;101711.41;4187638;28;20036;-68
2023/05/23 02:23:13;;;;;;;13.02;9.88;;;12.20;99.90;;;11.63;100.00;101697.34;4186784;28;20029;-68
2023/05/23 02:25:14;;;;;;;13.18;8.93;;;12.30;99.90;;;11.65;100.00;101702.47;4193022;28;20515;-68
2023/05/23 02:27:15;;;;;;;13.32;9.95;;;12.30;99.90;;;11.65;100.00;101702.47;4186714;28;20033;-68
2023/05/23 02:29:16;;;;;;;15.60;10.45;;;12.20;99.90;;;11.64;100.00;101704.31;4195809;28;20028;-68
2023/05/23 02:31:17;;;;;;;14.18;9.88;;;12.20;99.90;;;11.66;100.00;101704.16;4189431;28;20500;-68
2023/05/23 02:33:18;;;;;;;14.88;10.13;;;12.20;99.90;;;11.66;100.00;101710.28;4186635;28;20107;-68
2023/05/23 02:35:19;;;;;;;14.80;9.98;;;12.20;99.90;;;11.68;100.00;101710.13;4186423;28;20017;-68
2023/05/23 02:37:20;;;;;;;13.68;9.73;;;12.30;99.90;;;11.67;100.00;101705.84;4186422;28;20041;-68
2023/05/23 02:39:21;;;;;;;17.50;9.50;;;12.30;99.90;;;11.68;100.00;101707.47;4195747;28;20435;-68
2023/05/23 02:41:22;;;;;;;16.08;9.93;;;12.30;99.90;;;11.66;100.00;101712.09;4203289;28;20074;-68
2023/05/23 02:43:23;;;;;;;17.20;10.98;;;12.30;99.90;;;11.61;100.00;101709.88;4192745;28;20381;-68
2023/05/23 02:45:24;;;;;;;16.58;10.52;;;12.30;99.90;;;11.68;100.00;101719.88;4186345;28;20020;-68
2023/05/23 02:47:25;;;;;;;15.10;9.88;;;12.30;99.90;;;11.68;100.00;101718.06;4186381;28;20573;-68
2023/05/23 02:49:26;;;;;;;14.20;9.65;;;12.30;99.90;;;11.64;100.00;101717.53;4195755;28;20020;-68
2023/05/23 02:51:26;;;;;;;15.35;9.73;;;12.30;99.90;;;11.60;100.00;101707.34;4202746;28;20472;-68
2023/05/23 02:53:27;;;;;;;15.43;9.27;;;12.20;99.90;;;11.60;100.00;101710.00;4188031;28;20017;-68
2023/05/23 02:55:30;;;;;;;15.40;10.43;;;12.20;99.90;;;11.60;100.00;101710.00;4186270;28;20061;-68
2023/05/23 02:57:31;;;;;;;19.08;10.48;;;12.20;99.90;;;11.56;100.00;101711.22;4186200;28;20392;-68
2023/05/23 02:59:32;;;;;;;14.25;9.55;;;12.20;99.90;;;11.54;100.00;101707.91;4187294;28;20033;-68
2023/05/23 03:01:33;;;;;;;14.48;9.68;;;12.20;99.90;;;11.57;100.00;101712.91;4198680;28;20024;-68
2023/05/23 03:03:35;;;;;;;16.23;10.85;;;12.20;99.90;;;11.55;100.00;101701.66;4191768;28;20029;-68
2023/05/23 03:05:36;;;;;;;17.33;10.20;;;12.20;99.90;;;11.52;100.00;101702.78;4195278;28;20029;-68
2023/05/23 03:07:37;;;;;;;16.30;10.45;;;12.10;99.90;;;11.45;100.00;101693.72;4195128;28;20403;-68
2023/05/23 03:09:38;;;;;;;19.13;9.85;;;12.10;99.90;;;11.47;100.00;101704.97;4202444;28;20033;-68
2023/05/23 03:11:39;;;;;;;18.17;10.45;;;12.10;99.90;;;11.49;100.00;101710.97;4185677;28;20040;-68
2023/05/23 03:13:40;;;;;;;16.88;10.27;;;12.10;99.90;;;11.50;100.00;101706.50;4195679;28;20067;-68
2023/05/23 03:15:41;;;;;;;14.90;9.75;;;12.10;99.90;;;11.48;100.00;101708.47;4185905;28;20029;-68
2023/05/23 03:17:42;;;;;;;16.83;10.25;;;12.10;99.90;;;11.47;100.00;101706.78;4196584;28;20021;-68
2023/05/23 03:19:42;;;;;;;13.02;9.10;;;12.10;99.90;;;11.46;100.00;101698.03;4196419;28;20025;-68
2023/05/23 03:21:43;;;;;;;14.65;10.38;;;12.10;99.90;;;11.44;100.00;101692.03;4189682;28;20016;-68
2023/05/23 03:23:44;;;;;;;13.20;9.38;;;12.10;99.90;;;11.42;100.00;101693.16;4184625;28;20036;-68
2023/05/23 03:25:45;;;;;;;13.45;9.80;;;12.10;99.90;;;11.41;100.00;101702.06;4197330;28;20024;-68
2023/05/23 03:27:46;;;;;;;13.20;10.30;;;12.00;99.90;;;11.39;100.00;101696.91;4200751;28;20024;-68
2023/05/23 03:29:47;;;;;;;14.15;10.50;;;12.00;99.90;;;11.37;100.00;101695.38;4202221;28;20035;-68
2023/05/23 03:31:48;;;;;;;16.30;10.77;;;12.00;99.90;;;11.38;100.00;101705.00;4202057;28;20028;-68
2023/05/23 03:33:49;;;;;;;18.20;10.43;;;12.00;99.90;;;11.41;100.00;101704.72;4201930;28;20021;-68
2023/05/23 03:35:51;;;;;;;16.60;10.80;;;12.00;99.90;;;11.40;100.00;101693.31;4202037;28;20024;-68
2023/05/23 03:37:52;;;;;;;14.68;11.15;;;12.00;99.90;;;11.45;100.00;101693.72;4196527;28;20025;-68
2023/05/23 03:39:53;;;;;;;16.38;10.35;;;12.00;99.90;;;11.42;100.00;101685.22;4191840;28;20032;-68
2023/05/23 03:41:54;;;;;;;13.38;9.98;;;12.00;99.90;;;11.40;100.00;101676.63;4188407;28;20099;-68
2023/05/23 03:43:55;;;;;;;12.27;8.95;;;12.00;99.90;;;11.38;100.00;101681.22;4187972;28;20025;-68
2023/05/23 03:45:56;;;;;;;15.88;9.93;;;12.00;99.90;;;11.41;100.00;101694.16;4188110;28;20033;-68
2023/05/23 03:47:58;;;;;;;15.70;10.00;;;12.00;99.90;;;11.41;100.00;101688.88;4190963;28;20098;-68
2023/05/23 03:49:58;;;;;;;17.80;9.63;;;12.00;99.90;;;11.49;100.00;101696.94;4195716;28;20458;-68
2023/05/23 03:52:00;;;;;;;15.25;10.18;;;12.10;99.90;;;11.54;100.00;101694.69;4201505;28;20052;-68
2023/05/23 03:54:01;;;;;;;15.15;10.20;;;12.10;99.90;;;11.59;100.00;101679.25;4201881;28;20024;-68
2023/05/23 03:56:02;;;;;;;19.17;11.52;;;12.20;99.90;;;11.72;100.00;101689.56;4193902;28;20028;-68
2023/05/23 03:58:03;;;;;;;14.88;10.23;;;12.30;99.90;;;11.79;100.00;101688.03;4185488;28;20065;-68
2023/05/23 04:00:11;;;;;;;17.83;11.15;;;12.30;99.90;;;11.82;100.00;101683.31;4185167;28;20029;-68
2023/05/23 04:02:12;;;;;;;14.60;10.15;;;12.40;99.90;;;11.87;100.00;101682.88;4188693;28;20044;-68
2023/05/23 04:04:12;;;;;;;15.75;10.43;;;12.40;99.90;;;11.85;100.00;101683.03;4193325;28;20078;-68
2023/05/23 04:06:13;;;;;;;14.13;9.95;;;12.40;99.90;;;11.84;100.00;101685.81;4189558;28;20029;-68
2023/05/23 04:08:14;;;;;;;15.35;9.95;;;12.50;99.90;;;11.79;100.00;101688.88;4199514;28;20095;-68
2023/05/23 04:10:15;;;;;;;19.27;10.70;;;12.40;99.90;;;11.71;100.00;101683.44;4201970;28;20025;-68
2023/05/23 04:12:16;;;;;;;14.07;10.05;;;12.40;99.90;;;11.69;100.00;101695.94;4193225;28;20032;-68
2023/05/23 04:14:21;;;;;;;15.23;10.13;;;12.30;99.90;;;11.65;100.00;101686.63;4184104;28;20400;-68
2023/05/23 04:16:22;;;;;;;12.65;10.50;;;12.30;99.90;;;11.56;100.00;101690.09;4199863;28;20364;-68
2023/05/23 04:18:23;;;;;;;12.52;8.95;;;12.30;99.90;;;11.51;100.00;101692.31;4201795;28;20158;-68
2023/05/23 04:20:25;;;;;;;14.27;9.05;;;12.20;99.90;;;11.49;100.00;101683.72;4201601;28;20028;-68
2023/05/23 04:22:25;;;;;;;13.75;9.00;;;12.10;99.90;;;11.45;100.00;101692.88;4172840;28;20072;-68
2023/05/23 04:24:26;;;;;;;15.45;9.90;;;12.10;99.90;;;11.46;100.00;101691.91;4183848;28;20029;-68
2023/05/23 04:26:27;;;;;;;16.95;10.13;;;12.10;99.90;;;11.42;100.00;101693.16;4190428;28;20561;-68
2023/05/23 04:28:28;;;;;;;13.90;9.45;;;12.10;99.90;;;11.40;100.00;101695.94;4185115;28;20021;-68
2023/05/23 04:30:30;;;;;;;18.83;10.48;;;12.00;99.90;;;11.39;100.00;101699.56;4184947;28;20396;-68
2023/05/23 04:32:30;;;;;;;16.50;10.43;;;12.00;99.90;;;11.38;100.00;101697.06;4200250;28;20120;-68
2023/05/23 04:34:36;;;;;;;13.75;10.05;;;12.00;99.90;;;11.40;100.00;101701.25;4186617;28;20021;-68
2023/05/23 04:36:37;;;;;;;16.02;10.95;;;12.00;99.90;;;11.40;100.00;101695.13;4193851;28;20415;-69
2023/05/23 04:38:39;;;;;;;18.48;11.25;;;12.00;99.90;;;11.41;100.00;101699.44;4187274;28;20036;-68
2023/05/23 04:40:40;;;;;;;17.85;11.30;;;12.00;99.90;;;11.40;100.00;101695.94;4201946;28;20143;-68
2023/05/23 04:42:43;;;;;;;13.70;9.73;;;12.00;99.90;;;11.44;100.00;101707.09;4203639;28;20032;-68
2023/05/23 04:44:44;;;;;;;13.25;9.77;;;12.00;99.90;;;11.43;100.00;101700.13;4196805;28;20017;-68
2023/05/23 04:46:45;;;;;;;14.82;10.10;;;12.00;99.90;;;11.46;100.00;101700.69;4188343;28;20024;-68
2023/05/23 04:48:45;;;;;;;16.10;10.52;;;12.10;99.90;;;11.48;100.00;101708.47;4213395;28;20144;-68
2023/05/23 04:50:47;;;;;;;14.60;9.95;;;12.10;99.90;;;11.53;100.00;101719.44;4200312;28;20534;-68
2023/05/23 04:52:48;;;;;;;11.75;9.43;;;12.10;99.90;;;11.49;100.00;101710.13;4193540;28;20024;-68
2023/05/23 04:54:49;;;;;;;17.95;10.85;;;12.10;99.90;;;11.55;100.00;101723.63;4196428;28;20484;-68
2023/05/23 04:56:50;;;;;;;20.55;11.38;;;12.10;99.90;;;11.57;100.00;101712.91;4203453;28;20031;-68
2023/05/23 04:58:51;;;;;;;17.65;11.18;;;12.10;99.90;;;11.61;100.00;101709.03;4203726;28;20028;-68
2023/05/23 05:00:52;;;;;;;16.92;10.73;;;12.20;99.90;;;11.59;100.00;101697.75;4204615;28;20020;-68
2023/05/23 05:02:53;;;;;;;16.25;10.88;;;12.20;99.90;;;11.71;100.00;101704.59;4204678;28;20028;-68
2023/05/23 05:04:54;;;;;;;15.15;10.25;;;12.30;99.90;;;11.75;100.00;101706.00;4195664;28;20024;-68
2023/05/23 05:06:55;;;;;;;15.80;11.90;;;12.30;99.90;;;11.77;100.00;101704.03;4190776;28;20082;-68
2023/05/23 05:08:56;;;;;;;17.90;10.65;;;12.40;99.90;;;11.83;100.00;101708.75;4203301;28;20053;-68
2023/05/23 05:10:57;;;;;;;14.15;10.50;;;12.40;99.90;;;11.87;100.00;101710.16;4187915;28;20029;-68
2023/05/23 05:12:57;;;;;;;17.23;10.13;;;12.40;99.90;;;11.91;100.00;101708.06;4203030;28;20032;-68
2023/05/23 05:14:58;;;;;;;16.23;11.07;;;12.40;99.90;;;11.91;100.00;101700.13;4187868;28;20029;-68
2023/05/23 05:17:01;;;;;;;17.50;11.10;;;12.50;99.90;;;11.98;100.00;101714.44;4197762;28;20067;-68
2023/05/23 05:19:02;;;;;;;13.52;10.63;;;12.50;99.90;;;12.05;100.00;101713.75;4203908;28;20020;-68
2023/05/23 05:21:03;;;;;;;20.20;11.15;;;12.60;99.90;;;12.10;100.00;101714.16;4219699;28;20430;-68
2023/05/23 05:23:04;;;;;;;17.08;9.60;;;12.60;99.90;;;12.10;100.00;101711.50;4203228;28;20032;-68
2023/05/23 05:25:09;;;;;;;43.28;12.48;;;12.70;99.90;;;12.16;100.00;101723.31;4202265;28;20075;-68
2023/05/23 05:27:10;;;;;;;19.88;11.02;;;12.70;99.90;;;12.23;100.00;101720.94;4196970;28;20460;-68
2023/05/23 05:29:12;;;;;;;23.50;11.50;;;12.70;99.90;;;12.30;100.00;101722.91;4199350;28;20039;-68
2023/05/23 05:31:13;;;;;;;15.93;11.10;;;12.80;99.90;;;12.35;100.00;101725.09;4188241;28;20021;-68
2023/05/23 05:33:14;;;;;;;17.90;11.77;;;12.80;99.90;;;12.46;100.00;101725.75;4192495;28;20082;-68
2023/05/23 05:35:16;;;;;;;15.40;9.73;;;12.90;99.90;;;12.55;100.00;101724.06;4187273;28;20029;-68
2023/05/23 05:37:17;;;;;;;16.10;10.25;;;13.00;99.90;;;12.60;100.00;101725.28;4186409;28;20475;-68
2023/05/23 05:39:18;;;;;;;13.98;9.93;;;13.10;99.90;;;12.64;100.00;101731.13;4200593;28;20043;-68
2023/05/23 05:41:19;;;;;;;14.82;10.65;;;13.10;99.90;;;12.74;100.00;101731.94;4195216;28;20029;-68
2023/05/23 05:43:21;;;;;;;19.42;11.38;;;13.20;99.90;;;12.81;100.00;101727.72;4200898;28;20025;-68
2023/05/23 05:45:22;;;;;;;15.70;10.63;;;13.30;99.90;;;12.96;100.00;101728.88;4172719;28;20021;-68
2023/05/23 05:47:23;;;;;;;13.35;9.82;;;13.40;99.90;;;13.05;100.00;101725.34;4186773;28;20107;-68
2023/05/23 05:49:23;;;;;;;14.55;10.05;;;13.50;99.90;;;13.15;100.00;101722.69;4191623;28;20024;-68
2023/05/23 05:51:24;;;;;;;13.95;9.35;;;13.70;99.90;;;13.31;100.00;101730.81;4191641;28;20416;-67
2023/05/23 05:53:25;;;;;;;16.10;10.48;;;13.80;99.90;;;13.45;100.00;101730.28;4187335;28;20017;-68
2023/05/23 05:55:26;;;;;;;13.38;9.38;;;13.90;99.90;;;13.56;100.00;101726.59;4202405;28;20082;-68
2023/05/23 05:57:27;;;;;;;18.67;9.65;;;14.00;99.90;;;13.63;100.00;101725.00;4203992;28;20471;-68
2023/05/23 05:59:28;;;;;;;15.93;9.65;;;14.10;99.90;;;13.73;100.00;101725.75;4203765;28;20021;-68
2023/05/23 06:01:29;;;;;;;13.60;9.07;;;14.20;99.90;;;13.78;100.00;101720.81;4192246;28;20032;-68
2023/05/23 06:03:32;;;;;;;12.73;9.88;;;14.20;99.90;;;13.86;100.00;101723.53;4186887;28;20029;-68
2023/05/23 06:05:33;;;;;;;14.18;9.32;;;14.30;99.90;;;13.97;100.00;101725.13;4202186;28;20029;-68
2023/05/23 06:07:34;;;;;;;17.60;10.02;;;14.40;99.90;;;14.09;100.00;101727.38;4194748;28;20028;-68
2023/05/23 06:09:35;;;;;;;12.70;9.00;;;14.50;99.90;;;14.26;100.00;101725.66;4202246;28;20020;-68
2023/05/23 06:11:39;;;;;;;15.05;9.07;;;14.60;99.90;;;14.36;100.00;101727.28;4187697;28;20477;-68
2023/05/23 06:13:40;;;;;;;;;;;14.80;99.90;;;14.39;100.00;101726.94;4191688;28;20074;-68
2023/05/23 06:15:41;;;;;;;13.30;8.55;;;14.80;99.90;;;14.37;100.00;101739.53;4185918;28;19917;-68
2023/05/23 06:17:43;;;;;;;14.48;9.35;;;14.90;99.90;;;14.47;100.00;101726.16;4199051;28;20035;-67
2023/05/23 06:19:44;;;;;;;11.82;7.82;;;15.00;99.90;;;14.52;100.00;101731.84;4203074;28;20151;-68
2023/05/23 06:21:45;;;;;;;13.35;8.73;;;15.00;99.90;;;14.56;100.00;101730.53;4197942;28;20439;-68
2023/05/23 06:23:46;;;;;;;9.82;7.55;;;15.10;99.90;;;14.67;100.00;101726.75;4194106;28;20028;-68
2023/05/23 06:25:46;;;;;;;11.13;7.32;;;15.20;99.90;;;14.73;100.00;101729.63;4186845;28;20025;-68
2023/05/23 06:27:48;;;;;;;10.68;7.22;;;15.30;99.90;;;14.84;100.00;101739.16;4186578;28;20036;-67
2023/05/23 06:29:49;;;;;;;13.55;7.20;;;15.30;99.90;;;14.97;100.00;101739.53;4194487;28;20028;-67
2023/05/23 06:31:50;;;;;;;10.77;7.32;;;15.40;99.90;;;15.04;100.00;101737.06;4193650;28;20033;-67
2023/05/23 06:33:53;;;;;;;9.82;7.38;;;15.50;99.90;;;15.06;100.00;101743.88;4197800;28;20062;-67
2023/05/23 06:35:54;;;;;;;13.48;7.38;;;15.60;99.90;;;15.20;100.00;101740.59;4203064;28;20025;-67
2023/05/23 06:37:55;;;;;;;12.07;7.65;;;15.70;99.90;;;15.24;100.00;101741.94;4201410;28;20048;-68
2023/05/23 06:39:55;;;;;;;13.10;7.13;;;15.80;99.90;;;15.27;100.00;101744.28;4196564;28;20025;-67
2023/05/23 06:41:56;;;;;;;11.68;6.50;;;15.80;99.90;;;15.35;100.00;101736.31;4193859;28;20020;-67
2023/05/23 06:43:57;;;;;;;13.10;6.35;;;15.90;99.90;;;15.50;100.00;101741.88;4188503;28;20111;-67
2023/05/23 06:45:58;;;;;;;11.15;6.78;;;16.00;99.90;;;15.58;100.00;101741.88;4186655;28;20468;-67
2023/05/23 06:48:00;;;;;;;18.58;7.35;;;16.10;99.90;;;15.73;100.00;101753.53;4186297;28;20408;-67
2023/05/23 06:50:02;;;;;;;11.43;6.15;;;16.20;99.90;;;15.76;100.00;101755.03;4198276;28;20020;-67
2023/05/23 06:52:03;;;;;;;11.88;6.63;;;16.30;99.90;;;15.77;100.00;101743.41;4188417;28;20032;-67
2023/05/23 06:54:05;;;;;;;11.15;5.93;;;16.30;99.90;;;15.79;100.00;101752.06;4184997;28;20033;-68
2023/05/23 06:56:05;;;;;;;10.43;5.93;;;16.40;99.90;;;15.80;100.00;101745.75;4192477;28;20103;-68
2023/05/23 06:58:06;;;;;;;11.10;5.82;;;16.40;99.90;;;15.95;100.00;101752.03;4196378;28;20032;-68
2023/05/23 07:00:09;;;;;;;10.07;6.25;;;16.50;99.90;;;15.94;100.00;101745.91;4202283;28;20028;-68
2023/05/23 07:02:09;;;;;;;10.60;5.68;;;16.50;99.90;;;16.12;100.00;101744.91;4186390;28;20036;-68
2023/05/23 07:04:11;;;;;;;7.50;5.35;;;16.60;99.90;;;16.28;100.00;101748.38;4185901;28;20499;-68
2023/05/23 07:06:12;;;;;;;11.73;5.60;;;16.70;99.90;;;16.26;100.00;101746.88;4191627;28;20109;-68
2023/05/23 07:08:12;;;;;;;8.07;5.30;;;16.80;99.90;;;16.35;100.00;101749.38;4198923;28;20029;-68
2023/05/23 07:10:13;;;;;;;10.32;5.07;;;16.80;99.90;;;16.53;100.00;101760.66;4202480;28;20023;-68
2023/05/23 07:12:14;;;;;;;14.57;5.60;;;16.90;99.90;;;16.64;100.00;101747.97;4195156;28;20021;-68
2023/05/23 07:14:15;;;;;;;8.13;5.72;;;17.10;99.90;;;16.76;100.00;101757.28;4195618;28;20025;-68
2023/05/23 07:16:16;;;;;;;10.90;6.20;;;17.10;99.90;;;16.89;100.00;101747.75;4185791;28;20025;-68
2023/05/23 07:18:17;;;;;;;9.07;5.55;;;17.30;99.90;;;17.04;98.57;101753.19;4186099;28;20029;-68
2023/05/23 07:20:18;;;;;;;9.93;5.60;;;17.50;99.90;;;17.09;97.07;101756.16;4189616;28;20021;-68
2023/05/23 07:22:19;;;;;;;8.20;5.38;;;17.60;99.90;;;17.17;97.94;101766.81;4190818;28;20484;-68
2023/05/23 07:24:20;;;;;;;8.35;5.15;;;17.70;99.90;;;17.20;95.94;101769.13;4200953;28;20078;-68
2023/05/23 07:26:21;;;;;;;11.18;5.75;;;17.80;99.90;;;17.15;95.45;101771.44;4187973;28;20055;-68
2023/05/23 07:28:22;;;;;;;12.63;5.28;;;17.70;99.90;;;17.30;95.55;101779.53;4185579;28;20029;-68
2023/05/23 07:30:23;;;;;;;9.60;5.70;;;17.80;99.90;;;17.24;93.77;101773.06;4185455;28;20075;-68
2023/05/23 07:32:23;;;;;;;10.00;5.15;;;17.90;99.90;;;17.30;93.88;101772.38;4187288;28;20049;-68
2023/05/23 07:34:25;;;;;;;9.05;5.60;;;17.90;99.90;;;17.41;91.73;101768.50;4201816;28;20024;-68
2023/05/23 07:36:26;;;;;;;10.05;5.10;;;18.00;99.90;;;17.43;92.06;101772.66;4195664;28;20017;-68
2023/05/23 07:38:27;;;;;;;9.38;5.60;;;18.00;99.90;;;17.45;92.81;101767.97;4185797;28;20028;-68
2023/05/23 07:40:28;;;;;;;8.80;5.45;;;18.10;99.90;;;17.33;92.38;101768.53;4185534;28;20485;-68
2023/05/23 07:42:29;;;;;;;9.95;5.85;;;18.00;99.90;;;17.25;91.29;101774.75;4190206;28;20387;-68
2023/05/23 07:44:30;;;;;;;11.52;6.13;;;18.00;99.90;;;17.46;90.90;101771.47;4185668;28;20028;-68
2023/05/23 07:46:30;;;;;;;7.35;5.32;;;18.00;99.90;;;17.42;90.34;101770.97;4194831;28;20024;-68
2023/05/23 07:48:32;;;;;;;7.40;4.60;;;18.00;99.90;;;17.50;90.20;101762.91;4201497;28;20047;-68
2023/05/23 07:50:32;;;;;;;9.07;5.45;;;18.10;99.90;;;17.71;89.62;101778.34;4184942;28;20596;-68
2023/05/23 07:52:35;;;;;;;8.30;5.07;;;18.20;99.90;;;17.78;89.21;101781.97;4185470;28;20017;-68
2023/05/23 07:54:35;;;;;;;9.63;4.68;;;18.30;99.90;;;17.82;89.28;101777.94;4185602;28;20508;-68
2023/05/23 07:56:37;;;;;;;8.77;5.47;;;18.30;99.90;;;17.68;87.66;101782.19;4196103;28;20032;-68
2023/05/23 07:58:38;;;;;;;7.38;4.82;;;18.40;99.90;;;17.57;88.93;101776.41;4185998;28;20108;-68
2023/05/23 08:00:40;;;;;;;7.53;4.82;;;18.30;99.90;;;17.74;88.10;101782.50;4189808;28;20027;-68
2023/05/23 08:02:41;;;;;;;9.73;5.57;;;18.30;99.90;;;17.72;86.97;101777.31;4184148;28;20028;-68
2023/05/23 08:04:42;;;;;;;9.85;5.18;;;18.40;99.90;;;17.75;86.37;101773.47;4197121;28;20036;-68
2023/05/23 08:06:46;;;;;;;7.60;5.50;;;18.40;99.90;;;17.77;87.27;101769.59;4186949;28;20036;-68
2023/05/23 08:08:46;;;;;;;7.13;4.35;;;18.40;99.90;;;18.00;87.30;101767.78;4190184;28;20496;-68
2023/05/23 08:10:47;;;;;;;9.05;5.43;;;18.40;99.90;;;17.92;86.78;101783.84;4191888;28;20127;-68
2023/05/23 08:12:48;;;;;;;11.52;5.70;;;18.50;99.90;;;17.89;86.70;101784.19;4184022;28;20420;-68
2023/05/23 08:14:49;;;;;;;10.00;5.90;;;18.40;99.90;;;17.87;85.78;101780.06;4200102;28;20035;-68
2023/05/23 08:16:50;;;;;;;10.10;5.63;;;18.40;99.90;;;17.81;86.62;101783.44;4195826;28;20068;-68
2023/05/23 08:18:51;;;;;;;8.73;4.97;;;18.40;99.90;;;17.85;86.93;101782.91;4192724;28;20412;-68